createdAt,value
2019-04-29T00:00:44.351Z,85.60
2019-04-29T00:01:50.535Z,85.62
2019-04-29T00:02:54.990Z,85.87
2019-04-29T00:03:59.449Z,86.10
2019-04-29T00:05:05.922Z,86.33
2019-04-29T00:06:10.810Z,86.26
2019-04-29T00:07:15.569Z,86.26
2019-04-29T00:08:20.022Z,86.22
2019-04-29T00:09:24.863Z,86.02
2019-04-29T00:10:30.098Z,86.38
2019-04-29T00:11:34.573Z,86.45
2019-04-29T00:12:39.556Z,86.54
2019-04-29T00:13:44.297Z,86.42
2019-04-29T00:14:53.483Z,85.96
2019-04-29T00:16:12.004Z,86.16
2019-04-29T00:17:24.223Z,86.35
2019-04-29T00:18:33.296Z,86.80
2019-04-29T00:19:58.231Z,86.46
2019-04-29T00:21:02.685Z,86.54
2019-04-29T00:22:07.230Z,86.59
2019-04-29T00:23:11.691Z,86.51
2019-04-29T00:24:16.154Z,86.35
2019-04-29T00:25:20.604Z,86.81
2019-04-29T00:26:25.593Z,86.61
2019-04-29T00:27:30.417Z,86.65
2019-04-29T00:28:34.942Z,86.77
2019-04-29T00:29:39.399Z,86.70
2019-04-29T00:30:44.094Z,86.79
2019-04-29T00:31:48.641Z,86.51
2019-04-29T00:32:53.093Z,86.60
2019-04-29T00:33:57.555Z,86.37
2019-04-29T00:35:02.015Z,86.11
2019-04-29T00:36:06.611Z,86.54
2019-04-29T00:37:16.046Z,86.70
2019-04-29T00:38:22.147Z,86.85
2019-04-29T00:39:44.834Z,87.02
2019-04-29T00:41:02.826Z,87.28
2019-04-29T00:42:25.236Z,87.26
2019-04-29T00:43:46.617Z,87.22
2019-04-29T00:44:51.079Z,87.20
2019-04-29T00:45:55.612Z,87.05
2019-04-29T00:47:00.453Z,87.05
2019-04-29T00:48:04.911Z,87.05
2019-04-29T00:49:09.376Z,87.40
2019-04-29T00:50:14.104Z,87.40
2019-04-29T00:51:18.906Z,87.41
2019-04-29T00:52:23.732Z,87.63
2019-04-29T00:53:28.358Z,87.47
2019-04-29T00:54:34.754Z,87.69
2019-04-29T00:55:39.518Z,87.99
2019-04-29T00:56:43.988Z,87.99
2019-04-29T00:57:49.436Z,87.79
2019-04-29T00:58:53.896Z,87.94
2019-04-29T00:59:58.696Z,87.81
2019-04-29T01:01:04.236Z,87.99
2019-04-29T01:02:09.272Z,87.90
2019-04-29T01:03:13.752Z,87.71
2019-04-29T01:04:18.217Z,87.71
2019-04-29T01:05:22.679Z,87.89
2019-04-29T01:06:27.140Z,87.92
2019-04-29T01:07:31.599Z,87.51
2019-04-29T01:08:36.616Z,88.73
2019-04-29T01:09:41.079Z,88.29
2019-04-29T01:10:45.912Z,88.29
2019-04-29T01:11:50.686Z,88.28
2019-04-29T01:12:55.509Z,87.91
2019-04-29T01:13:59.966Z,87.65
2019-04-29T01:15:06.532Z,88.09
2019-04-29T01:16:10.990Z,88.09
2019-04-29T01:17:15.815Z,88.23
2019-04-29T01:18:20.298Z,88.07
2019-04-29T01:19:24.757Z,87.79
2019-04-29T01:20:29.215Z,88.03
2019-04-29T01:21:33.680Z,88.18
2019-04-29T01:22:38.219Z,88.11
2019-04-29T01:23:43.138Z,88.33
2019-04-29T01:24:47.915Z,88.56
2019-04-29T01:25:54.307Z,88.29
2019-04-29T01:27:00.723Z,88.33
2019-04-29T01:28:10.060Z,88.49
2019-04-29T01:29:16.314Z,88.78
2019-04-29T01:30:41.714Z,89.08
2019-04-29T01:31:46.188Z,88.85
2019-04-29T01:32:50.641Z,88.92
2019-04-29T01:33:56.767Z,88.88
2019-04-29T01:35:01.228Z,88.88
2019-04-29T01:36:16.657Z,89.16
2019-04-29T01:37:22.823Z,89.31
2019-04-29T01:38:27.288Z,89.31
2019-04-29T01:39:53.306Z,89.26
2019-04-29T01:41:02.090Z,89.37
2019-04-29T01:42:08.191Z,89.72
2019-04-29T01:43:12.652Z,89.91
2019-04-29T01:44:18.305Z,90.04
2019-04-29T01:45:23.069Z,90.04
2019-04-29T01:46:28.170Z,89.90
2019-04-29T01:47:33.698Z,89.90
2019-04-29T01:48:38.166Z,89.99
2019-04-29T01:49:42.717Z,90.37
2019-04-29T01:50:47.195Z,90.37
2019-04-29T01:51:51.651Z,90.36
2019-04-29T01:52:56.405Z,90.36
2019-04-29T01:54:00.900Z,89.93
2019-04-29T01:55:05.698Z,90.59
2019-04-29T01:56:10.548Z,90.64
2019-04-29T01:57:15.372Z,90.47
2019-04-29T01:58:20.114Z,90.99
2019-04-29T01:59:24.908Z,90.99
2019-04-29T02:00:29.368Z,90.55
2019-04-29T02:01:34.140Z,90.55
2019-04-29T02:02:38.594Z,90.81
2019-04-29T02:03:43.474Z,90.54
2019-04-29T02:04:49.307Z,90.57
2019-04-29T02:05:53.766Z,90.67
2019-04-29T02:06:58.227Z,90.73
2019-04-29T02:08:02.687Z,90.74
2019-04-29T02:09:10.241Z,90.97
2019-04-29T02:10:16.892Z,90.73
2019-04-29T02:11:21.642Z,90.66
2019-04-29T02:12:27.135Z,90.90
2019-04-29T02:13:31.968Z,90.99
2019-04-29T02:14:36.450Z,91.06
2019-04-29T02:15:40.904Z,91.29
2019-04-29T02:16:45.362Z,91.57
2019-04-29T02:17:49.828Z,91.52
2019-04-29T02:18:54.291Z,91.40
2019-04-29T02:19:58.772Z,91.19
2019-04-29T02:21:03.304Z,91.32
2019-04-29T02:22:09.696Z,91.66
2019-04-29T02:23:15.798Z,91.67
2019-04-29T02:24:20.928Z,91.42
2019-04-29T02:25:33.182Z,91.65
2019-04-29T02:26:38.104Z,91.67
2019-04-29T02:27:42.564Z,91.74
2019-04-29T02:28:47.025Z,91.80
2019-04-29T02:29:51.898Z,91.86
2019-04-29T02:30:56.515Z,92.12
2019-04-29T02:32:01.048Z,92.04
2019-04-29T02:33:05.664Z,91.88
2019-04-29T02:34:10.565Z,91.84
2019-04-29T02:35:15.468Z,91.96
2019-04-29T02:36:19.929Z,92.16
2019-04-29T02:37:26.318Z,91.69
2019-04-29T02:38:44.736Z,91.85
2019-04-29T02:39:51.109Z,91.97
2019-04-29T02:41:02.693Z,92.28
2019-04-29T02:42:14.792Z,92.28
2019-04-29T02:43:20.978Z,92.26
2019-04-29T02:44:25.833Z,92.27
2019-04-29T02:45:31.953Z,92.26
2019-04-29T02:46:36.411Z,92.66
2019-04-29T02:47:41.169Z,92.69
2019-04-29T02:48:45.629Z,92.69
2019-04-29T02:49:50.093Z,92.23
2019-04-29T02:50:54.838Z,92.30
2019-04-29T02:51:59.308Z,92.13
2019-04-29T02:53:03.779Z,92.22
2019-04-29T02:54:08.230Z,92.32
2019-04-29T02:55:14.672Z,92.23
2019-04-29T02:56:19.149Z,92.23
2019-04-29T02:57:25.248Z,92.65
2019-04-29T02:58:37.947Z,92.65
2019-04-29T02:59:53.260Z,92.60
2019-04-29T03:01:15.514Z,92.42
2019-04-29T03:02:21.620Z,92.25
2019-04-29T03:03:27.714Z,92.78
2019-04-29T03:04:36.740Z,92.72
2019-04-29T03:05:43.180Z,92.59
2019-04-29T03:06:47.739Z,92.65
2019-04-29T03:07:52.337Z,92.65
2019-04-29T03:08:56.869Z,92.84
2019-04-29T03:10:01.342Z,92.79
2019-04-29T03:11:06.258Z,92.72
2019-04-29T03:12:10.716Z,92.94
2019-04-29T03:13:15.244Z,93.03
2019-04-29T03:14:19.773Z,93.03
2019-04-29T03:15:31.335Z,92.85
2019-04-29T03:16:35.824Z,92.59
2019-04-29T03:17:41.008Z,92.59
2019-04-29T03:18:47.109Z,93.13
2019-04-29T03:20:08.364Z,93.17
2019-04-29T03:21:14.472Z,92.88
2019-04-29T03:22:18.931Z,93.19
2019-04-29T03:23:25.676Z,93.16
2019-04-29T03:24:30.145Z,93.30
2019-04-29T03:25:34.608Z,93.34
2019-04-29T03:26:39.441Z,93.49
2019-04-29T03:27:43.903Z,93.76
2019-04-29T03:28:48.368Z,93.66
2019-04-29T03:29:52.836Z,93.47
2019-04-29T03:30:57.303Z,93.26
2019-04-29T03:32:01.791Z,93.35
2019-04-29T03:33:06.276Z,93.13
2019-04-29T03:34:10.729Z,93.68
2019-04-29T03:35:15.538Z,93.79
2019-04-29T03:36:21.375Z,93.92
2019-04-29T03:37:26.207Z,93.91
2019-04-29T03:38:30.667Z,93.84
2019-04-29T03:39:35.429Z,93.94
2019-04-29T03:40:39.966Z,93.98
2019-04-29T03:41:44.421Z,94.06
2019-04-29T03:42:48.921Z,94.04
2019-04-29T03:43:53.371Z,93.93
2019-04-29T03:44:58.195Z,93.80
2019-04-29T03:46:02.654Z,93.80
2019-04-29T03:47:07.120Z,93.72
2019-04-29T03:48:11.605Z,93.73
2019-04-29T03:49:16.054Z,94.01
2019-04-29T03:50:20.971Z,93.62
2019-04-29T03:51:25.427Z,93.62
2019-04-29T03:52:29.899Z,93.60
2019-04-29T03:53:34.712Z,93.49
2019-04-29T03:54:39.525Z,93.86
2019-04-29T03:55:44.275Z,93.95
2019-04-29T03:56:48.747Z,93.83
2019-04-29T03:57:53.218Z,94.08
2019-04-29T03:58:57.677Z,94.10
2019-04-29T04:00:02.214Z,94.11
2019-04-29T04:01:18.949Z,94.11
2019-04-29T04:02:25.483Z,94.24
2019-04-29T04:03:46.640Z,94.27
2019-04-29T04:05:10.928Z,94.31
2019-04-29T04:06:25.878Z,94.34
2019-04-29T04:07:43.997Z,94.28
2019-04-29T04:09:04.866Z,94.44
2019-04-29T04:09:56.548Z,94.86
2019-04-29T04:11:01.008Z,94.86
2019-04-29T04:12:05.471Z,94.62
2019-04-29T04:13:10.242Z,94.49
2019-04-29T04:14:14.709Z,94.66
2019-04-29T04:15:19.171Z,94.54
2019-04-29T04:16:31.193Z,94.54
2019-04-29T04:17:42.940Z,94.49
2019-04-29T04:18:47.398Z,94.53
2019-04-29T04:19:51.859Z,94.46
2019-04-29T04:20:56.705Z,94.27
2019-04-29T04:22:01.174Z,94.16
2019-04-29T04:23:05.659Z,94.41
2019-04-29T04:24:10.119Z,94.23
2019-04-29T04:25:14.645Z,94.53
2019-04-29T04:26:19.106Z,94.59
2019-04-29T04:27:23.567Z,94.30
2019-04-29T04:28:28.328Z,94.47
2019-04-29T04:29:32.786Z,94.51
2019-04-29T04:30:37.261Z,94.67
2019-04-29T04:31:41.721Z,94.74
2019-04-29T04:32:46.266Z,94.74
2019-04-29T04:33:50.746Z,94.54
2019-04-29T04:34:55.202Z,94.43
2019-04-29T04:35:59.675Z,94.48
2019-04-29T04:37:04.508Z,94.40
2019-04-29T04:38:08.985Z,95.07
2019-04-29T04:39:13.441Z,95.07
2019-04-29T04:40:28.948Z,94.46
2019-04-29T04:41:33.406Z,94.35
2019-04-29T04:42:37.865Z,94.25
2019-04-29T04:43:42.647Z,94.29
2019-04-29T04:44:50.280Z,94.17
2019-04-29T04:45:55.144Z,94.23
2019-04-29T04:46:59.899Z,94.09
2019-04-29T04:48:04.747Z,94.48
2019-04-29T04:49:09.210Z,93.99
2019-04-29T04:50:13.911Z,93.99
2019-04-29T04:51:18.366Z,94.21
2019-04-29T04:52:22.830Z,94.04
2019-04-29T04:53:27.325Z,94.26
2019-04-29T04:54:32.448Z,94.25
2019-04-29T04:55:38.561Z,94.26
2019-04-29T04:56:43.338Z,93.99
2019-04-29T04:57:47.802Z,93.93
2019-04-29T04:58:52.671Z,93.46
2019-04-29T04:59:57.127Z,93.46
2019-04-29T05:01:01.590Z,93.87
2019-04-29T05:02:06.120Z,93.73
2019-04-29T05:03:10.589Z,94.28
2019-04-29T05:04:15.062Z,94.28
2019-04-29T05:05:19.525Z,94.16
2019-04-29T05:06:23.988Z,93.97
2019-04-29T05:07:29.418Z,93.92
2019-04-29T05:08:34.199Z,94.32
2019-04-29T05:09:39.015Z,94.32
2019-04-29T05:10:43.838Z,93.94
2019-04-29T05:11:48.580Z,94.10
2019-04-29T05:12:53.043Z,94.13
2019-04-29T05:13:57.532Z,93.69
2019-04-29T05:15:02.300Z,93.69
2019-04-29T05:16:06.760Z,94.07
2019-04-29T05:17:11.527Z,94.32
2019-04-29T05:18:15.988Z,94.21
2019-04-29T05:19:20.469Z,94.21
2019-04-29T05:20:24.930Z,94.40
2019-04-29T05:21:30.748Z,94.16
2019-04-29T05:22:35.560Z,94.09
2019-04-29T05:23:41.715Z,93.79
2019-04-29T05:24:46.596Z,93.38
2019-04-29T05:25:51.063Z,92.84
2019-04-29T05:26:55.533Z,92.95
2019-04-29T05:28:00.169Z,92.73
2019-04-29T05:29:05.059Z,92.73
2019-04-29T05:30:11.104Z,92.39
2019-04-29T05:31:15.923Z,92.31
2019-04-29T05:32:20.390Z,91.84
2019-04-29T05:33:24.854Z,91.59
2019-04-29T05:34:30.982Z,91.59
2019-04-29T05:35:46.160Z,91.86
2019-04-29T05:36:58.045Z,91.86
2019-04-29T05:38:10.217Z,91.98
2019-04-29T05:39:19.360Z,91.50
2019-04-29T05:40:44.092Z,91.50
2019-04-29T05:41:48.864Z,91.57
2019-04-29T05:42:54.071Z,91.94
2019-04-29T05:44:00.566Z,91.45
2019-04-29T05:45:21.592Z,91.45
2019-04-29T05:46:30.664Z,91.78
2019-04-29T05:47:37.067Z,91.65
2019-04-29T05:48:41.855Z,91.65
2019-04-29T05:49:47.980Z,91.52
2019-04-29T05:50:56.947Z,92.22
2019-04-29T05:52:05.116Z,92.31
2019-04-29T05:53:17.927Z,92.28
2019-04-29T05:54:26.946Z,91.94
2019-04-29T05:55:30.435Z,92.18
2019-04-29T05:56:34.966Z,92.79
2019-04-29T05:57:42.512Z,93.22
2019-04-29T05:58:46.412Z,93.22
2019-04-29T05:59:50.898Z,92.63
2019-04-29T06:00:57.291Z,92.97
2019-04-29T06:02:03.119Z,92.98
2019-04-29T06:03:07.585Z,92.95
2019-04-29T06:04:16.340Z,92.93
2019-04-29T06:05:18.223Z,93.29
2019-04-29T06:06:22.681Z,93.80
2019-04-29T06:07:27.139Z,94.33
2019-04-29T06:08:34.562Z,94.31
2019-04-29T06:09:38.128Z,94.85
2019-04-29T06:10:42.597Z,95.25
2019-04-29T06:11:47.051Z,95.25
2019-04-29T06:12:51.807Z,95.54
2019-04-29T06:13:56.546Z,95.55
2019-04-29T06:15:01.362Z,95.69
2019-04-29T06:16:06.148Z,95.77
2019-04-29T06:17:10.900Z,95.82
2019-04-29T06:18:17.688Z,95.71
2019-04-29T06:19:22.075Z,95.68
2019-04-29T06:20:26.555Z,95.67
2019-04-29T06:21:31.318Z,95.56
2019-04-29T06:22:37.878Z,95.68
2019-04-29T06:23:42.236Z,95.68
2019-04-29T06:24:46.725Z,95.20
2019-04-29T06:25:51.188Z,95.20
2019-04-29T06:26:55.651Z,95.51
2019-04-29T06:28:00.119Z,95.51
2019-04-29T06:29:05.954Z,95.75
2019-04-29T06:30:11.149Z,95.42
2019-04-29T06:31:15.611Z,95.42
2019-04-29T06:32:24.346Z,95.64
2019-04-29T06:33:29.225Z,96.03
2019-04-29T06:34:35.590Z,96.24
2019-04-29T06:35:38.869Z,96.24
2019-04-29T06:36:43.611Z,96.01
2019-04-29T06:37:48.081Z,96.18
2019-04-29T06:38:52.532Z,96.19
2019-04-29T06:39:56.999Z,96.20
2019-04-29T06:41:01.482Z,96.31
2019-04-29T06:42:06.305Z,96.20
2019-04-29T06:43:10.764Z,96.32
2019-04-29T06:44:16.754Z,96.32
2019-04-29T06:45:21.392Z,95.96
2019-04-29T06:46:26.137Z,95.96
2019-04-29T06:47:30.889Z,95.98
2019-04-29T06:48:35.349Z,95.89
2019-04-29T06:49:40.097Z,95.89
2019-04-29T06:50:45.153Z,96.00
2019-04-29T06:51:49.610Z,95.82
2019-04-29T06:52:54.370Z,95.97
2019-04-29T06:53:58.842Z,95.75
2019-04-29T06:55:03.678Z,95.75
2019-04-29T06:56:09.280Z,95.98
2019-04-29T06:57:13.817Z,96.21
2019-04-29T06:58:18.290Z,96.11
2019-04-29T06:59:23.037Z,95.96
2019-04-29T07:00:28.319Z,96.13
2019-04-29T07:01:33.059Z,95.34
2019-04-29T07:02:38.997Z,95.10
2019-04-29T07:03:43.460Z,95.08
2019-04-29T07:04:48.228Z,95.08
2019-04-29T07:05:52.865Z,95.09
2019-04-29T07:06:57.932Z,94.94
2019-04-29T07:08:02.438Z,95.34
2019-04-29T07:09:07.771Z,95.34
2019-04-29T07:10:16.484Z,95.68
2019-04-29T07:11:18.572Z,95.68
2019-04-29T07:12:23.346Z,95.23
2019-04-29T07:13:27.896Z,94.77
2019-04-29T07:14:33.369Z,95.29
2019-04-29T07:15:39.508Z,95.01
2019-04-29T07:16:44.284Z,95.01
2019-04-29T07:17:48.752Z,95.39
2019-04-29T07:18:53.808Z,95.15
2019-04-29T07:20:02.076Z,95.43
2019-04-29T07:21:07.551Z,95.69
2019-04-29T07:22:11.000Z,95.66
2019-04-29T07:23:15.772Z,95.43
2019-04-29T07:24:20.553Z,94.88
2019-04-29T07:25:28.858Z,95.00
2019-04-29T07:26:31.835Z,95.00
2019-04-29T07:27:42.951Z,95.21
2019-04-29T07:28:42.469Z,95.33
2019-04-29T07:29:46.933Z,95.60
2019-04-29T07:31:01.218Z,95.88
2019-04-29T07:31:58.165Z,95.85
2019-04-29T07:33:05.452Z,95.58
2019-04-29T07:34:09.139Z,94.96
2019-04-29T07:35:13.831Z,95.06
2019-04-29T07:36:18.716Z,95.08
2019-04-29T07:37:24.759Z,94.84
2019-04-29T07:38:40.696Z,94.14
2019-04-29T07:39:35.473Z,94.16
2019-04-29T07:40:43.280Z,93.70
2019-04-29T07:41:49.619Z,93.87
2019-04-29T07:42:52.341Z,93.39
2019-04-29T07:43:56.802Z,93.62
2019-04-29T07:45:12.247Z,93.57
2019-04-29T07:46:48.984Z,93.77
2019-04-29T07:47:40.664Z,93.61
2019-04-29T07:48:45.443Z,94.18
2019-04-29T07:49:51.527Z,94.51
2019-04-29T07:50:59.546Z,95.11
2019-04-29T07:52:02.538Z,95.27
2019-04-29T07:53:06.996Z,95.24
2019-04-29T07:54:16.021Z,95.28
2019-04-29T07:55:17.616Z,95.38
2019-04-29T07:56:22.085Z,95.63
2019-04-29T07:57:26.563Z,95.46
2019-04-29T07:58:31.313Z,94.74
2019-04-29T07:59:38.527Z,94.59
2019-04-29T08:00:44.521Z,95.30
2019-04-29T08:01:48.390Z,94.92
2019-04-29T08:02:52.871Z,94.99
2019-04-29T08:03:58.971Z,94.98
2019-04-29T08:05:21.163Z,94.78
2019-04-29T08:06:26.077Z,94.82
2019-04-29T08:07:31.294Z,94.94
2019-04-29T08:08:36.292Z,94.82
2019-04-29T08:09:44.131Z,94.65
2019-04-29T08:10:55.878Z,94.90
2019-04-29T08:11:54.415Z,95.03
2019-04-29T08:12:59.638Z,94.59
2019-04-29T08:14:04.917Z,94.45
2019-04-29T08:15:09.825Z,95.03
2019-04-29T08:16:17.081Z,94.82
2019-04-29T08:17:22.176Z,95.03
2019-04-29T08:18:26.651Z,94.89
2019-04-29T08:19:31.661Z,94.54
2019-04-29T08:20:39.940Z,95.08
2019-04-29T08:21:45.614Z,94.61
2019-04-29T08:22:49.967Z,94.97
2019-04-29T08:23:54.430Z,94.63
2019-04-29T08:24:58.894Z,94.78
2019-04-29T08:26:04.512Z,94.93
2019-04-29T08:27:09.158Z,94.87
2019-04-29T08:28:13.932Z,94.53
2019-04-29T08:29:19.454Z,95.05
2019-04-29T08:30:24.228Z,95.07
2019-04-29T08:31:28.995Z,94.62
2019-04-29T08:32:36.459Z,95.03
2019-04-29T08:33:42.528Z,94.97
2019-04-29T08:34:47.790Z,95.13
2019-04-29T08:35:52.534Z,95.12
2019-04-29T08:36:57.286Z,95.33
2019-04-29T08:38:01.772Z,95.60
2019-04-29T08:39:09.285Z,94.88
2019-04-29T08:40:16.859Z,95.15
2019-04-29T08:41:28.304Z,94.60
2019-04-29T08:42:31.831Z,94.81
2019-04-29T08:43:38.224Z,94.69
2019-04-29T08:44:50.533Z,95.05
2019-04-29T08:45:56.628Z,94.94
2019-04-29T08:47:11.425Z,94.89
2019-04-29T08:48:15.907Z,94.67
2019-04-29T08:49:20.363Z,94.80
2019-04-29T08:50:25.147Z,95.08
2019-04-29T08:51:29.900Z,94.86
2019-04-29T08:52:34.656Z,95.03
2019-04-29T08:53:39.427Z,94.96
2019-04-29T08:54:44.174Z,94.88
2019-04-29T08:55:48.927Z,94.57
2019-04-29T08:57:02.934Z,94.68
2019-04-29T08:57:59.861Z,94.34
2019-04-29T08:59:04.389Z,94.54
2019-04-29T09:00:09.899Z,94.31
2019-04-29T09:01:14.429Z,94.29
2019-04-29T09:02:33.097Z,94.81
2019-04-29T09:03:39.219Z,94.34
2019-04-29T09:04:33.266Z,94.14
2019-04-29T09:05:37.671Z,94.43
2019-04-29T09:06:42.129Z,94.31
2019-04-29T09:07:46.593Z,94.26
2019-04-29T09:08:56.201Z,93.69
2019-04-29T09:10:01.829Z,94.35
2019-04-29T09:11:08.269Z,94.24
2019-04-29T09:12:10.354Z,94.51
2019-04-29T09:13:14.831Z,94.82
2019-04-29T09:14:19.293Z,94.83
2019-04-29T09:15:23.827Z,95.15
2019-04-29T09:16:28.436Z,94.93
2019-04-29T09:17:32.903Z,94.85
2019-04-29T09:18:37.380Z,94.77
2019-04-29T09:19:42.132Z,94.84
2019-04-29T09:20:47.960Z,94.83
2019-04-29T09:21:56.739Z,95.27
2019-04-29T09:23:03.149Z,95.15
2019-04-29T09:24:07.631Z,95.33
2019-04-29T09:25:28.629Z,95.36
2019-04-29T09:26:34.801Z,95.45
2019-04-29T09:27:45.063Z,94.87
2019-04-29T09:28:49.815Z,95.03
2019-04-29T09:29:54.304Z,95.17
2019-04-29T09:31:00.407Z,95.29
2019-04-29T09:32:06.043Z,95.35
2019-04-29T09:33:13.205Z,95.01
2019-04-29T09:34:19.829Z,95.46
2019-04-29T09:35:23.477Z,95.49
2019-04-29T09:36:28.948Z,95.31
2019-04-29T09:37:34.039Z,95.14
2019-04-29T09:38:38.526Z,95.01
2019-04-29T09:39:44.634Z,94.74
2019-04-29T09:40:54.571Z,94.71
2019-04-29T09:41:58.819Z,94.86
2019-04-29T09:43:21.474Z,95.51
2019-04-29T09:44:45.022Z,95.02
2019-04-29T09:45:53.889Z,94.99
2019-04-29T09:46:57.344Z,94.91
2019-04-29T09:48:02.096Z,94.37
2019-04-29T09:49:06.566Z,94.76
2019-04-29T09:50:11.289Z,94.75
2019-04-29T09:51:17.890Z,94.73
2019-04-29T09:52:21.991Z,94.55
2019-04-29T09:53:26.745Z,94.66
2019-04-29T09:54:31.201Z,94.45
2019-04-29T09:55:39.836Z,94.36
2019-04-29T09:56:41.849Z,94.41
2019-04-29T09:57:46.311Z,94.30
2019-04-29T09:58:52.413Z,94.25
2019-04-29T10:00:05.247Z,94.74
2019-04-29T10:01:30.383Z,94.73
2019-04-29T10:02:42.239Z,94.41
2019-04-29T10:03:57.132Z,94.30
2019-04-29T10:05:12.027Z,94.54
2019-04-29T10:06:33.963Z,94.50
2019-04-29T10:07:38.509Z,94.34
2019-04-29T10:08:43.045Z,94.10
2019-04-29T10:09:56.925Z,93.74
2019-04-29T10:10:53.761Z,93.92
2019-04-29T10:11:58.223Z,94.28
2019-04-29T10:13:02.695Z,94.26
2019-04-29T10:14:07.595Z,93.39
2019-04-29T10:15:14.081Z,93.59
2019-04-29T10:16:38.565Z,93.23
2019-04-29T10:17:53.565Z,93.42
2019-04-29T10:19:13.938Z,93.82
2019-04-29T10:20:22.973Z,92.98
2019-04-29T10:21:27.719Z,93.14
2019-04-29T10:22:32.362Z,93.66
2019-04-29T10:23:36.826Z,93.58
2019-04-29T10:24:41.294Z,93.28
2019-04-29T10:25:46.135Z,91.83
2019-04-29T10:26:50.598Z,92.38
2019-04-29T10:27:55.067Z,91.86
2019-04-29T10:29:01.175Z,90.99
2019-04-29T10:30:09.803Z,91.75
2019-04-29T10:31:14.374Z,92.26
2019-04-29T10:32:19.390Z,92.16
2019-04-29T10:33:24.979Z,91.90
2019-04-29T10:34:31.707Z,91.51
2019-04-29T10:35:36.052Z,91.09
2019-04-29T10:36:40.896Z,91.06
2019-04-29T10:37:45.728Z,90.38
2019-04-29T10:38:51.164Z,90.55
2019-04-29T10:40:10.592Z,91.71
2019-04-29T10:41:10.589Z,91.65
2019-04-29T10:42:16.966Z,91.11
2019-04-29T10:43:29.196Z,91.20
2019-04-29T10:44:41.304Z,91.55
2019-04-29T10:45:53.125Z,91.42
2019-04-29T10:47:11.393Z,91.42
2019-04-29T10:48:17.566Z,91.61
2019-04-29T10:49:26.999Z,92.26
2019-04-29T10:50:33.205Z,92.14
2019-04-29T10:51:37.916Z,92.06
2019-04-29T10:52:43.577Z,91.70
2019-04-29T10:54:00.046Z,92.23
2019-04-29T11:00:27.609Z,92.56
2019-04-29T11:02:01.684Z,93.05
2019-04-29T11:03:04.861Z,92.86
2019-04-29T11:04:09.511Z,92.40
2019-04-29T11:05:32.739Z,92.24
2019-04-29T11:06:37.485Z,92.66
2019-04-29T11:07:43.864Z,92.61
2019-04-29T11:08:52.722Z,92.03
2019-04-29T11:10:24.154Z,92.24
2019-04-29T11:11:23.259Z,91.83
2019-04-29T11:12:24.827Z,91.53
2019-04-29T11:13:29.807Z,91.13
2019-04-29T11:14:37.583Z,91.78
2019-04-29T11:15:40.494Z,91.65
2019-04-29T11:16:47.116Z,91.65
2019-04-29T11:17:59.308Z,91.65
2019-04-29T11:19:18.886Z,91.35
2019-04-29T11:20:24.990Z,90.75
2019-04-29T11:21:31.272Z,90.83
2019-04-29T11:22:40.173Z,90.21
2019-04-29T11:23:50.571Z,90.58
2019-04-29T11:25:05.593Z,89.59
2019-04-29T11:26:28.034Z,89.96
2019-04-29T11:27:36.968Z,89.73
2019-04-29T11:28:41.527Z,89.13
2019-04-29T11:29:46.299Z,89.13
2019-04-29T11:30:50.824Z,88.86
2019-04-29T11:31:55.971Z,88.31
2019-04-29T11:33:18.173Z,89.10
2019-04-29T11:34:24.341Z,88.28
2019-04-29T11:35:48.763Z,88.81
2019-04-29T11:37:00.758Z,89.61
2019-04-29T11:40:43.484Z,88.84
2019-04-29T11:41:43.499Z,87.97
2019-04-29T11:42:47.964Z,87.81
2019-04-29T11:43:52.909Z,86.74
2019-04-29T11:45:01.894Z,87.57
2019-04-29T11:46:03.640Z,86.65
2019-04-29T11:47:08.411Z,85.95
2019-04-29T11:48:13.035Z,85.77
2019-04-29T11:49:19.460Z,85.81
2019-04-29T11:50:45.165Z,86.62
2019-04-29T11:52:08.462Z,86.53
2019-04-29T11:52:55.645Z,86.82
2019-04-29T11:54:00.191Z,86.93
2019-04-29T11:55:08.085Z,87.31
2019-04-29T11:56:12.596Z,85.77
2019-04-29T11:57:18.763Z,86.10
2019-04-29T11:58:27.548Z,84.82
2019-04-29T11:59:33.648Z,84.39
2019-04-29T12:00:39.827Z,84.63
2019-04-29T12:01:51.008Z,84.63
2019-04-29T12:02:53.897Z,84.80
2019-04-29T12:04:08.851Z,84.93
2019-04-29T12:05:17.889Z,84.70
2019-04-29T12:06:23.217Z,85.33
2019-04-29T12:07:32.517Z,84.38
2019-04-29T12:08:34.627Z,85.00
2019-04-29T12:09:39.540Z,84.73
2019-04-29T12:10:52.068Z,85.44
2019-04-29T12:11:50.824Z,84.30
2019-04-29T12:12:55.512Z,83.85
2019-04-29T12:14:07.373Z,82.76
2019-04-29T12:15:15.116Z,84.62
2019-04-29T12:16:27.365Z,83.63
2019-04-29T12:17:33.567Z,84.10
2019-04-29T12:18:39.921Z,83.02
2019-04-29T12:19:49.277Z,83.17
2019-04-29T12:21:01.145Z,84.10
2019-04-29T12:22:09.112Z,82.26
2019-04-29T12:23:15.697Z,81.40
2019-04-29T12:24:18.538Z,80.86
2019-04-29T12:25:27.331Z,80.97
2019-04-29T12:26:30.188Z,81.29
2019-04-29T12:27:34.937Z,81.09
2019-04-29T12:28:42.725Z,81.14
2019-04-29T12:29:48.835Z,80.65
2019-04-29T12:30:55.368Z,80.38
2019-04-29T12:32:07.253Z,80.31
2019-04-29T12:33:19.078Z,80.04
2019-04-29T12:34:28.154Z,80.92
2019-04-29T12:35:50.746Z,79.92
2019-04-29T12:36:54.866Z,80.22
2019-04-29T12:38:00.773Z,80.61
2019-04-29T12:39:11.983Z,81.52
2019-04-29T12:40:24.281Z,80.25
2019-04-29T12:41:49.420Z,78.68
2019-04-29T12:42:58.590Z,78.66
2019-04-29T12:44:07.476Z,78.66
2019-04-29T12:45:19.531Z,77.77
2019-04-29T12:46:24.062Z,79.32
2019-04-29T12:47:36.212Z,76.84
2019-04-29T12:48:40.677Z,77.83
2019-04-29T12:49:46.462Z,76.93
2019-04-29T12:50:57.460Z,78.10
2019-04-29T12:51:57.484Z,77.04
2019-04-29T12:53:02.020Z,77.26
2019-04-29T12:54:07.060Z,76.84
2019-04-29T12:55:20.213Z,76.05
2019-04-29T12:56:21.356Z,75.68
2019-04-29T12:57:26.113Z,75.68
2019-04-29T12:58:31.553Z,76.27
2019-04-29T12:59:37.306Z,75.83
2019-04-29T13:00:48.297Z,75.17
2019-04-29T13:01:57.690Z,75.26
2019-04-29T13:03:11.704Z,75.43
2019-04-29T13:04:33.514Z,75.82
2019-04-29T13:05:57.560Z,76.37
2019-04-29T13:06:56.023Z,75.36
2019-04-29T13:08:16.953Z,76.06
2019-04-29T13:09:35.129Z,74.40
2019-04-29T13:10:44.331Z,73.66
2019-04-29T13:11:56.029Z,71.85
2019-04-29T13:12:58.020Z,73.60
2019-04-29T13:14:02.155Z,74.93
2019-04-29T13:15:24.975Z,74.78
2019-04-29T13:16:31.365Z,75.57
2019-04-29T13:17:40.179Z,74.38
2019-04-29T13:18:55.811Z,74.29
2019-04-29T13:20:07.277Z,72.21
2019-04-29T13:21:10.692Z,72.87
2019-04-29T13:22:17.122Z,71.98
2019-04-29T13:23:33.148Z,73.21
2019-04-29T13:24:28.132Z,71.06
2019-04-29T13:25:32.703Z,69.55
2019-04-29T13:26:40.095Z,69.96
2019-04-29T13:27:43.339Z,68.50
2019-04-29T13:29:03.247Z,70.35
2019-04-29T13:29:53.969Z,69.72
2019-04-29T13:30:58.460Z,68.37
2019-04-29T13:32:02.921Z,69.50
2019-04-29T13:33:16.354Z,68.90
2019-04-29T13:34:24.040Z,68.63
2019-04-29T13:35:21.746Z,69.43
2019-04-29T13:36:27.391Z,68.52
2019-04-29T13:37:32.132Z,67.31
2019-04-29T13:38:36.596Z,67.28
2019-04-29T13:39:41.056Z,67.93
2019-04-29T13:40:45.834Z,67.80
2019-04-29T13:41:57.614Z,67.80
2019-04-29T13:42:58.026Z,66.38
2019-04-29T13:44:05.639Z,67.44
2019-04-29T13:45:13.567Z,66.14
2019-04-29T13:46:20.110Z,65.16
2019-04-29T13:47:42.487Z,65.09
2019-04-29T13:48:55.950Z,66.29
2019-04-29T13:50:17.141Z,64.92
2019-04-29T13:51:33.984Z,65.51
2019-04-29T13:52:22.130Z,65.54
2019-04-29T13:53:26.600Z,64.75
2019-04-29T13:54:31.297Z,64.86
2019-04-29T13:55:47.703Z,64.63
2019-04-29T13:56:55.565Z,64.80
2019-04-29T13:57:49.523Z,64.56
2019-04-29T13:58:57.627Z,64.73
2019-04-29T14:00:04.958Z,63.76
2019-04-29T14:01:32.972Z,64.04
2019-04-29T14:02:36.814Z,64.58
2019-04-29T14:03:55.783Z,63.61
2019-04-29T14:05:02.284Z,63.12
2019-04-29T14:06:08.194Z,62.96
2019-04-29T14:07:14.096Z,61.67
2019-04-29T14:08:19.187Z,59.15
2019-04-29T14:09:24.112Z,59.69
2019-04-29T14:10:28.580Z,59.86
2019-04-29T14:11:33.073Z,57.80
2019-04-29T14:13:04.978Z,57.55
2019-04-29T14:13:48.367Z,58.19
2019-04-29T14:14:53.889Z,56.54
2019-04-29T14:15:57.967Z,56.83
2019-04-29T14:17:17.412Z,57.65
2019-04-29T14:18:11.773Z,57.45
2019-04-29T14:19:20.483Z,57.12
2019-04-29T14:20:21.816Z,58.81
2019-04-29T14:21:30.088Z,58.97
2019-04-29T14:22:32.889Z,60.24
2019-04-29T14:23:37.359Z,60.96
2019-04-29T14:24:41.825Z,59.35
2019-04-29T14:25:46.409Z,58.70
2019-04-29T14:26:52.111Z,59.85
2019-04-29T14:39:18.982Z,61.62